Time;durP1;ratioP1;P1;durP2;ratioP2;P2;SDS_P1;SDS_P2;PMS_P1;PMS_P2;Temp;Humidity;BMP_temperature;BMP_pressure;BME280_temperature;BME280_humidity;BME280_pressure;Samples;Min_cycle;Max_cycle;Signal;HPM_P1;HPM_P2
2022/06/11 00:01:33;;;;;;;;;;;23.20;49.00;;;;;;4899128;29;19916;-68
2022/06/11 00:04:02;;;;;;;;;;;23.10;48.50;;;;;;4899216;29;19916;-69
2022/06/11 00:06:28;;;;;;;;;;;22.90;49.40;;;;;;4899039;29;19915;-66
2022/06/11 00:08:54;;;;;;;;;;;22.80;49.80;;;;;;4898916;29;19912;-66
2022/06/11 00:11:20;;;;;;;;;;;22.80;49.70;;;;;;4898609;29;19924;-70
2022/06/11 00:13:46;;;;;;;;;;;22.80;49.60;;;;;;4898875;29;19916;-72
2022/06/11 00:16:12;;;;;;;;;;;22.80;50.30;;;;;;4898879;29;19911;-70
2022/06/11 00:18:40;;;;;;;;;;;22.70;50.00;;;;;;4898827;29;19919;-69
2022/06/11 00:21:06;;;;;;;;;;;22.70;50.00;;;;;;4898867;29;19912;-68
2022/06/11 00:23:32;;;;;;;;;;;22.70;50.00;;;;;;4881751;29;19934;-70
2022/06/11 00:25:57;;;;;;;;;;;22.60;49.70;;;;;;4898996;29;20364;-70
2022/06/11 00:28:23;;;;;;;;;;;22.60;50.10;;;;;;4898837;29;19968;-72
2022/06/11 00:30:48;;;;;;;;;;;22.60;50.10;;;;;;4898585;29;19919;-74
2022/06/11 00:33:14;;;;;;;;;;;22.70;49.90;;;;;;4898498;29;19911;-73
2022/06/11 00:35:40;;;;;;;;;;;22.60;49.80;;;;;;4898580;29;19918;-72
2022/06/11 00:38:06;;;;;;;;;;;22.50;49.70;;;;;;4898380;29;20364;-68
2022/06/11 00:40:34;;;;;;;;;;;22.50;49.70;;;;;;4898427;29;19912;-70
2022/06/11 00:42:59;;;;;;;;;;;22.60;49.60;;;;;;4898342;29;20321;-65
2022/06/11 00:45:28;;;;;;;;;;;22.50;49.40;;;;;;4898474;29;19939;-66
2022/06/11 00:48:05;;;;;;;;;;;22.60;49.50;;;;;;4898993;29;19911;-67
2022/06/11 00:50:52;;;;;;;;;;;22.60;49.40;;;;;;4901893;29;20002;-67
2022/06/11 00:53:43;;;;;;;;;;;22.70;49.50;;;;;;4902288;29;19919;-68
2022/06/11 00:56:18;;;;;;;;;;;22.60;49.30;;;;;;4901213;29;19911;-69
2022/06/11 00:58:45;;;;;;;;;;;22.70;49.40;;;;;;4902138;29;20364;-67
2022/06/11 01:01:13;;;;;;;;;;;22.60;49.20;;;;;;4902374;29;19923;-66
2022/06/11 01:03:41;;;;;;;;;;;22.60;49.60;;;;;;4902073;29;19959;-67
2022/06/11 01:06:07;;;;;;;;;;;22.60;49.10;;;;;;4902206;29;19912;-68
2022/06/11 01:08:32;;;;;;;;;;;22.60;48.90;;;;;;4901864;29;19935;-65
2022/06/11 01:10:58;;;;;;;;;;;22.60;49.10;;;;;;4901870;29;20403;-64
2022/06/11 01:13:43;;;;;;;;;;;22.60;49.00;;;;;;4902140;29;19926;-68
2022/06/11 01:16:13;;;;;;;;;;;22.60;49.00;;;;;;4902032;29;19912;-67
2022/06/11 01:18:45;;;;;;;;;;;22.60;49.00;;;;;;4901849;29;19912;-67
2022/06/11 01:21:21;;;;;;;;;;;22.60;48.90;;;;;;4902012;29;19915;-67
2022/06/11 01:24:04;;;;;;;;;;;22.60;48.90;;;;;;4901938;29;19919;-69
2022/06/11 01:26:53;;;;;;;;;;;22.70;48.80;;;;;;4901822;29;19912;-68
2022/06/11 01:29:18;;;;;;;;;;;22.80;48.70;;;;;;4901504;29;20029;-70
2022/06/11 01:31:49;;;;;;;;;;;22.80;48.60;;;;;;4901670;29;20010;-70
2022/06/11 01:34:15;;;;;;;;;;;22.80;48.10;;;;;;4901422;29;19941;-65
2022/06/11 01:36:41;;;;;;;;;;;22.80;48.10;;;;;;4884475;29;20230;-70
2022/06/11 01:39:13;;;;;;;;;;;22.70;48.70;;;;;;4901613;29;19995;-70
2022/06/11 01:41:46;;;;;;;;;;;22.70;48.50;;;;;;4901673;29;20410;-71
2022/06/11 01:44:18;;;;;;;;;;;22.70;48.60;;;;;;4901395;29;20014;-67
2022/06/11 01:46:45;;;;;;;;;;;22.60;49.40;;;;;;4901322;29;20400;-70
2022/06/11 01:49:20;;;;;;;;;;;22.70;49.00;;;;;;4901310;29;19911;-66
2022/06/11 01:51:55;;;;;;;;;;;22.50;50.10;;;;;;4901246;29;19924;-67
2022/06/11 01:54:20;;;;;;;;;;;22.40;49.60;;;;;;4901176;29;19919;-70
2022/06/11 01:56:49;;;;;;;;;;;22.50;49.00;;;;;;4901428;29;19919;-68
2022/06/11 01:59:23;;;;;;;;;;;22.50;49.40;;;;;;4900668;29;19911;-72
2022/06/11 02:02:00;;;;;;;;;;;22.60;49.10;;;;;;4901122;29;20344;-70
2022/06/11 02:04:28;;;;;;;;;;;22.50;49.40;;;;;;4901181;29;19934;-66
2022/06/11 02:06:56;;;;;;;;;;;22.70;48.90;;;;;;4901094;29;19911;-70
2022/06/11 02:09:31;;;;;;;;;;;22.70;48.50;;;;;;4900852;29;19911;-72
2022/06/11 02:12:03;;;;;;;;;;;22.70;48.70;;;;;;4900683;29;20296;-72
2022/06/11 02:14:32;;;;;;;;;;;22.40;49.00;;;;;;4901027;29;19976;-71
2022/06/11 02:16:58;;;;;;;;;;;22.50;49.20;;;;;;4901025;29;19959;-68
2022/06/11 02:19:25;;;;;;;;;;;22.20;49.30;;;;;;4900899;29;20324;-72
2022/06/11 02:21:54;;;;;;;;;;;22.30;50.00;;;;;;4901000;29;19975;-72
2022/06/11 02:24:22;;;;;;;;;;;22.30;49.30;;;;;;4900695;29;19912;-71
2022/06/11 02:26:50;;;;;;;;;;;22.30;48.90;;;;;;4900871;29;19915;-66
2022/06/11 02:29:17;;;;;;;;;;;22.40;49.40;;;;;;4900744;29;20002;-66
2022/06/11 02:31:57;;;;;;;;;;;22.50;49.20;;;;;;4900431;29;19924;-64
2022/06/11 02:34:24;;;;;;;;;;;22.50;48.80;;;;;;4900649;29;19912;-63
2022/06/11 02:36:52;;;;;;;;;;;22.50;48.00;;;;;;4900590;29;19918;-66
2022/06/11 02:39:18;;;;;;;;;;;22.60;48.30;;;;;;4900202;29;19919;-63
2022/06/11 02:41:46;;;;;;;;;;;22.60;48.50;;;;;;4901031;29;19911;-63
2022/06/11 02:44:11;;;;;;;;;;;22.70;48.40;;;;;;4900237;29;20399;-62
2022/06/11 02:46:41;;;;;;;;;;;22.80;48.20;;;;;;4900411;29;19912;-62
2022/06/11 02:49:08;;;;;;;;;;;22.80;47.60;;;;;;4900014;29;20253;-64
2022/06/11 02:51:34;;;;;;;;;;;22.80;47.80;;;;;;4900116;29;19919;-65
2022/06/11 02:54:00;;;;;;;;;;;22.80;47.60;;;;;;4900208;29;19918;-66
2022/06/11 02:56:26;;;;;;;;;;;22.70;47.60;;;;;;4900263;29;19919;-65
2022/06/11 02:58:52;;;;;;;;;;;22.70;47.50;;;;;;4900041;29;19912;-68
2022/06/11 03:01:19;;;;;;;;;;;22.70;47.80;;;;;;4900132;29;19918;-69
2022/06/11 03:03:45;;;;;;;;;;;22.70;47.80;;;;;;4900030;29;19912;-64
2022/06/11 03:06:11;;;;;;;;;;;22.70;47.70;;;;;;4899964;29;19918;-64
2022/06/11 03:08:36;;;;;;;;;;;22.70;48.00;;;;;;4899727;29;20360;-64
2022/06/11 03:11:02;;;;;;;;;;;22.60;47.60;;;;;;4899037;29;19971;-68
2022/06/11 03:13:27;;;;;;;;;;;22.70;48.50;;;;;;4899875;29;19915;-65
2022/06/11 03:15:53;;;;;;;;;;;22.60;47.60;;;;;;4899662;29;19912;-64
2022/06/11 03:18:19;;;;;;;;;;;22.50;47.80;;;;;;4899761;29;20051;-65
2022/06/11 03:20:45;;;;;;;;;;;22.60;47.80;;;;;;4899600;29;19911;-63
2022/06/11 03:23:11;;;;;;;;;;;22.50;47.60;;;;;;4882661;29;19922;-66
2022/06/11 03:25:37;;;;;;;;;;;22.50;47.60;;;;;;4899688;29;19912;-63
2022/06/11 03:28:10;;;;;;;;;;;22.50;47.50;;;;;;4899499;29;19918;-63
2022/06/11 03:30:36;;;;;;;;;;;22.60;47.80;;;;;;4899442;29;19919;-66
2022/06/11 03:33:01;;;;;;;;;;;22.50;47.90;;;;;;4899467;29;20371;-69
2022/06/11 03:35:27;;;;;;;;;;;22.40;47.90;;;;;;4899807;29;19911;-65
2022/06/11 03:37:52;;;;;;;;;;;22.40;48.10;;;;;;4899667;29;20002;-63
2022/06/11 03:40:18;;;;;;;;;;;22.50;48.10;;;;;;4899451;29;19950;-64
2022/06/11 03:42:43;;;;;;;;;;;22.50;48.10;;;;;;4899100;29;20325;-66
2022/06/11 03:45:10;;;;;;;;;;;22.50;47.80;;;;;;4899491;29;19911;-63
2022/06/11 03:47:38;;;;;;;;;;;22.50;48.00;;;;;;4899340;29;19955;-64
2022/06/11 03:50:08;;;;;;;;;;;22.60;48.10;;;;;;4899217;29;19919;-65
2022/06/11 03:52:34;;;;;;;;;;;22.50;47.80;;;;;;4898893;29;20368;-63
2022/06/11 03:54:59;;;;;;;;;;;22.50;47.80;;;;;;4899313;29;19918;-63
2022/06/11 03:57:26;;;;;;;;;;;22.50;48.10;;;;;;4899202;29;19919;-65
2022/06/11 03:59:52;;;;;;;;;;;22.40;47.60;;;;;;4899004;29;19912;-70
2022/06/11 04:02:18;;;;;;;;;;;22.40;47.80;;;;;;4898918;29;19934;-62
2022/06/11 04:04:44;;;;;;;;;;;22.40;47.80;;;;;;4898969;29;20364;-65
2022/06/11 04:07:09;;;;;;;;;;;22.40;47.90;;;;;;4899057;29;19912;-69
2022/06/11 04:09:37;;;;;;;;;;;22.40;48.20;;;;;;4881828;29;20083;-63
2022/06/11 04:12:04;;;;;;;;;;;22.30;48.20;;;;;;4898701;29;19946;-63
2022/06/11 04:14:29;;;;;;;;;;;22.30;48.30;;;;;;4882243;29;19912;-68
2022/06/11 04:16:58;;;;;;;;;;;22.40;48.50;;;;;;4898639;29;19919;-65
2022/06/11 04:19:26;;;;;;;;;;;22.40;48.40;;;;;;4898895;29;19912;-67
2022/06/11 04:21:53;;;;;;;;;;;22.50;48.30;;;;;;4898568;29;19912;-64
2022/06/11 04:24:19;;;;;;;;;;;22.60;48.40;;;;;;4898777;29;20418;-70
2022/06/11 04:26:46;;;;;;;;;;;22.60;48.40;;;;;;4898611;29;19915;-68
2022/06/11 04:29:13;;;;;;;;;;;22.50;48.40;;;;;;4898516;29;20307;-69
2022/06/11 04:31:39;;;;;;;;;;;22.50;48.50;;;;;;4898495;29;19919;-69
2022/06/11 04:34:05;;;;;;;;;;;22.60;48.80;;;;;;4898720;29;19919;-66
2022/06/11 04:36:31;;;;;;;;;;;22.60;48.60;;;;;;4898480;29;19916;-66
2022/06/11 04:38:57;;;;;;;;;;;22.60;48.70;;;;;;4899697;29;19912;-63
2022/06/11 04:41:22;;;;;;;;;;;22.70;48.40;;;;;;4903967;29;19912;-68
2022/06/11 04:43:48;;;;;;;;;;;22.70;48.20;;;;;;4902023;29;19911;-66
2022/06/11 04:46:14;;;;;;;;;;;22.70;48.60;;;;;;4901733;29;20356;-63
2022/06/11 04:48:39;;;;;;;;;;;22.60;48.60;;;;;;4900122;29;20284;-64
2022/06/11 04:51:06;;;;;;;;;;;22.70;48.20;;;;;;4900088;29;19920;-67
2022/06/11 04:53:31;;;;;;;;;;;22.60;48.00;;;;;;4900264;29;20292;-62
2022/06/11 04:55:57;;;;;;;;;;;22.60;48.00;;;;;;4898533;29;19912;-62
2022/06/11 04:58:22;;;;;;;;;;;22.60;48.10;;;;;;4898299;29;19912;-67
2022/06/11 05:00:48;;;;;;;;;;;22.70;47.90;;;;;;4881474;29;19916;-63
2022/06/11 05:03:14;;;;;;;;;;;22.70;48.00;;;;;;4898546;29;19951;-63
2022/06/11 05:05:39;;;;;;;;;;;22.80;48.00;;;;;;4898217;29;19959;-64
2022/06/11 05:08:05;;;;;;;;;;;22.80;47.80;;;;;;4898299;29;19919;-66
2022/06/11 05:10:32;;;;;;;;;;;22.80;48.00;;;;;;4898112;29;19927;-65
2022/06/11 05:12:57;;;;;;;;;;;22.80;47.90;;;;;;4898071;29;19923;-64
2022/06/11 05:15:23;;;;;;;;;;;22.80;47.90;;;;;;4898231;29;20268;-70
2022/06/11 05:17:48;;;;;;;;;;;22.80;48.20;;;;;;4898152;29;20280;-70
2022/06/11 05:20:15;;;;;;;;;;;22.70;48.00;;;;;;4898647;29;19912;-68
2022/06/11 05:22:41;;;;;;;;;;;22.70;47.90;;;;;;4898230;29;20291;-68
2022/06/11 05:25:07;;;;;;;;;;;22.70;48.30;;;;;;4898164;29;19912;-64
2022/06/11 05:27:33;;;;;;;;;;;22.80;48.50;;;;;;4897959;29;19912;-72
2022/06/11 05:30:00;;;;;;;;;;;22.70;48.60;;;;;;4897774;29;19926;-72
2022/06/11 05:32:30;;;;;;;;;;;22.70;48.50;;;;;;4898113;29;19915;-66
2022/06/11 05:35:00;;;;;;;;;;;22.80;48.50;;;;;;4900799;29;20379;-67
2022/06/11 05:37:26;;;;;;;;;;;23.00;48.40;;;;;;4901638;29;20026;-69
2022/06/11 05:39:52;;;;;;;;;;;23.30;47.60;;;;;;4901387;29;19934;-70
2022/06/11 05:42:20;;;;;;;;;;;23.70;47.50;;;;;;4901419;29;19911;-72
2022/06/11 05:44:45;;;;;;;;;;;24.10;46.20;;;;;;4901554;29;19946;-72
2022/06/11 05:47:13;;;;;;;;;;;24.50;45.00;;;;;;4901551;29;19953;-69
2022/06/11 05:49:40;;;;;;;;;;;24.80;44.60;;;;;;4901112;29;19918;-68
2022/06/11 05:52:08;;;;;;;;;;;25.00;44.10;;;;;;4901387;29;19967;-66
2022/06/11 05:54:35;;;;;;;;;;;25.30;43.20;;;;;;4901322;29;19968;-68
2022/06/11 05:57:06;;;;;;;;;;;25.40;42.60;;;;;;4901240;29;19911;-73
2022/06/11 05:59:34;;;;;;;;;;;25.60;42.70;;;;;;4901242;29;19954;-72
2022/06/11 06:02:01;;;;;;;;;;;25.40;42.00;;;;;;4901294;29;19919;-66
2022/06/11 06:04:26;;;;;;;;;;;25.40;42.10;;;;;;4901156;29;19911;-69
2022/06/11 06:06:52;;;;;;;;;;;25.60;42.20;;;;;;4900950;29;20002;-67
2022/06/11 06:09:17;;;;;;;;;;;25.80;41.70;;;;;;4900857;29;20428;-67
2022/06/11 06:11:43;;;;;;;;;;;25.90;41.30;;;;;;4900825;29;19927;-69
2022/06/11 06:14:09;;;;;;;;;;;26.00;41.20;;;;;;4900461;29;20010;-66
2022/06/11 06:16:34;;;;;;;;;;;26.10;40.80;;;;;;4900630;29;20332;-68
2022/06/11 06:19:01;;;;;;;;;;;26.00;41.10;;;;;;4900828;29;19911;-68
2022/06/11 06:21:28;;;;;;;;;;;25.90;40.80;;;;;;4900809;29;20284;-66
2022/06/11 06:23:54;;;;;;;;;;;26.00;40.90;;;;;;4900397;29;19911;-73
2022/06/11 06:26:20;;;;;;;;;;;26.00;40.80;;;;;;4900826;29;19912;-77
2022/06/11 06:28:46;;;;;;;;;;;25.90;40.80;;;;;;4900487;29;20486;-73
2022/06/11 06:31:13;;;;;;;;;;;26.00;40.80;;;;;;4900461;29;20356;-75
2022/06/11 06:33:39;;;;;;;;;;;26.10;41.00;;;;;;4900318;29;20419;-75
2022/06/11 06:36:05;;;;;;;;;;;26.50;40.90;;;;;;4900468;29;20063;-67
2022/06/11 06:38:32;;;;;;;;;;;26.50;39.80;;;;;;4901516;29;20134;-65
2022/06/11 06:40:57;;;;;;;;;;;26.60;39.40;;;;;;4908615;29;20359;-72
2022/06/11 06:43:23;;;;;;;;;;;26.70;39.00;;;;;;4910219;29;20002;-70
2022/06/11 06:45:49;;;;;;;;;;;26.80;39.70;;;;;;4907785;29;19911;-74
2022/06/11 06:48:15;;;;;;;;;;;26.80;39.20;;;;;;4908667;29;19990;-69
2022/06/11 06:50:40;;;;;;;;;;;26.70;39.70;;;;;;4910075;29;20267;-70
2022/06/11 06:53:06;;;;;;;;;;;26.90;40.20;;;;;;4908374;29;19912;-68
2022/06/11 06:55:31;;;;;;;;;;;26.90;39.00;;;;;;4909016;29;20394;-70
2022/06/11 06:57:57;;;;;;;;;;;26.80;39.30;;;;;;4915030;29;19911;-69
2022/06/11 07:00:23;;;;;;;;;;;26.90;39.20;;;;;;4919069;29;19988;-71
2022/06/11 07:02:48;;;;;;;;;;;26.90;38.80;;;;;;4919000;29;19919;-75
2022/06/11 07:05:14;;;;;;;;;;;26.90;38.70;;;;;;4918682;29;19944;-66
2022/06/11 07:07:40;;;;;;;;;;;26.90;38.80;;;;;;4918868;29;19911;-72
2022/06/11 07:10:07;;;;;;;;;;;26.90;39.60;;;;;;4918750;29;20018;-70
2022/06/11 07:12:32;;;;;;;;;;;26.90;39.60;;;;;;4917879;29;19969;-67
2022/06/11 07:14:58;;;;;;;;;;;26.70;39.60;;;;;;4914562;29;20371;-67
2022/06/11 07:17:25;;;;;;;;;;;26.60;39.80;;;;;;4907039;29;20380;-69
2022/06/11 07:19:55;;;;;;;;;;;26.50;40.50;;;;;;4907473;29;20320;-67
2022/06/11 07:22:23;;;;;;;;;;;26.60;40.30;;;;;;4908487;29;19994;-68
2022/06/11 07:24:48;;;;;;;;;;;26.70;40.00;;;;;;4907428;29;19919;-67
2022/06/11 07:27:19;;;;;;;;;;;26.70;40.10;;;;;;4907005;29;19911;-68
2022/06/11 07:29:48;;;;;;;;;;;26.70;39.50;;;;;;4908038;29;19911;-66
2022/06/11 07:32:15;;;;;;;;;;;26.50;40.60;;;;;;4907898;29;20387;-68
2022/06/11 07:34:41;;;;;;;;;;;26.40;40.30;;;;;;4906036;29;20098;-69
2022/06/11 07:37:06;;;;;;;;;;;26.20;40.80;;;;;;4898588;29;20015;-74
2022/06/11 07:39:32;;;;;;;;;;;26.40;41.00;;;;;;4881710;29;19915;-76
2022/06/11 07:41:58;;;;;;;;;;;26.70;40.50;;;;;;4898853;29;19954;-73
2022/06/11 07:44:23;;;;;;;;;;;26.90;40.10;;;;;;4904072;29;20010;-73
2022/06/11 07:46:49;;;;;;;;;;;27.00;40.50;;;;;;4907112;29;19918;-78
2022/06/11 07:49:15;;;;;;;;;;;27.00;40.20;;;;;;4908184;29;20297;-78
2022/06/11 07:51:40;;;;;;;;;;;26.90;40.40;;;;;;4906107;29;19926;-71
2022/06/11 07:54:06;;;;;;;;;;;27.10;39.30;;;;;;4888030;29;19915;-74
2022/06/11 07:56:31;;;;;;;;;;;27.20;39.70;;;;;;4897967;29;20006;-73
2022/06/11 07:58:57;;;;;;;;;;;27.20;39.30;;;;;;4898323;29;19955;-69
2022/06/11 08:01:22;;;;;;;;;;;27.30;39.50;;;;;;4898116;29;19958;-74
2022/06/11 08:03:48;;;;;;;;;;;27.30;39.90;;;;;;4898359;29;19954;-69
2022/06/11 08:06:13;;;;;;;;;;;27.10;40.10;;;;;;4898083;29;20352;-73
2022/06/11 08:08:39;;;;;;;;;;;27.10;40.00;;;;;;4898312;29;19912;-75
2022/06/11 08:11:06;;;;;;;;;;;27.10;40.70;;;;;;4833858;29;1879516;-71
2022/06/11 08:13:31;;;;;;;;;;;27.00;40.80;;;;;;4898716;29;19919;-70
2022/06/11 08:15:58;;;;;;;;;;;27.10;41.10;;;;;;4899002;29;19911;-71
2022/06/11 08:18:24;;;;;;;;;;;27.20;40.20;;;;;;4898642;29;19987;-73
2022/06/11 08:20:51;;;;;;;;;;;27.40;41.00;;;;;;4898783;29;20321;-73
2022/06/11 08:23:18;;;;;;;;;;;27.40;40.30;;;;;;4898604;29;20009;-76
2022/06/11 08:25:44;;;;;;;;;;;27.40;40.70;;;;;;4898586;29;19911;-73
2022/06/11 08:28:11;;;;;;;;;;;27.40;40.70;;;;;;4905710;29;19918;-72
2022/06/11 08:30:37;;;;;;;;;;;27.20;41.00;;;;;;4908455;29;19978;-72
2022/06/11 08:33:03;;;;;;;;;;;27.20;40.80;;;;;;4907087;29;19911;-69
2022/06/11 08:35:30;;;;;;;;;;;27.10;40.80;;;;;;4907185;29;19911;-71
2022/06/11 08:37:55;;;;;;;;;;;27.00;41.00;;;;;;4895324;29;19911;-73
2022/06/11 08:40:21;;;;;;;;;;;27.00;40.90;;;;;;4907994;29;19919;-73
2022/06/11 08:42:50;;;;;;;;;;;27.20;40.40;;;;;;4889836;29;19912;-74
2022/06/11 08:45:19;;;;;;;;;;;27.20;40.80;;;;;;4907544;29;19918;-73
2022/06/11 08:47:48;;;;;;;;;;;27.20;42.00;;;;;;4908365;29;20317;-77
2022/06/11 08:50:15;;;;;;;;;;;27.20;41.00;;;;;;4917250;29;19926;-73
2022/06/11 08:52:40;;;;;;;;;;;27.40;41.30;;;;;;4917350;29;19911;-73
2022/06/11 08:55:06;;;;;;;;;;;27.50;40.50;;;;;;4917168;29;20282;-75
2022/06/11 08:57:44;;;;;;;;;;;27.70;39.70;;;;;;4917312;29;19966;-73
2022/06/11 09:00:22;;;;;;;;;;;27.80;39.60;;;;;;4917331;29;20312;-68
2022/06/11 09:02:53;;;;;;;;;;;27.90;38.10;;;;;;4917115;29;20260;-69
2022/06/11 09:05:29;;;;;;;;;;;27.90;38.20;;;;;;4917245;29;20379;-69
2022/06/11 09:07:55;;;;;;;;;;;27.90;37.10;;;;;;4917068;29;19918;-69
2022/06/11 09:12:56;;;;;;;;;;;27.80;37.60;;;;;;4900275;29;19935;-71
2022/06/11 09:15:22;;;;;;;;;;;27.70;37.70;;;;;;4900167;29;20307;-72
2022/06/11 09:18:06;;;;;;;;;;;27.80;36.80;;;;;;4901392;29;19918;-70
2022/06/11 09:20:34;;;;;;;;;;;27.90;36.50;;;;;;4880557;29;19919;-71
2022/06/11 09:23:10;;;;;;;;;;;27.90;36.20;;;;;;4882455;29;20326;-70
2022/06/11 09:25:54;;;;;;;;;;;27.90;37.20;;;;;;4883124;29;19912;-68
2022/06/11 09:28:27;;;;;;;;;;;27.90;37.10;;;;;;4882930;29;19912;-70
2022/06/11 09:31:07;;;;;;;;;;;27.80;37.10;;;;;;4882721;29;19924;-69
2022/06/11 09:33:37;;;;;;;;;;;27.80;37.40;;;;;;4881570;29;19912;-69
2022/06/11 09:36:11;;;;;;;;;;;27.90;37.70;;;;;;4882894;29;20261;-69
2022/06/11 09:38:36;;;;;;;;;;;27.90;36.70;;;;;;4881805;29;20367;-71
2022/06/11 09:41:02;;;;;;;;;;;27.80;36.00;;;;;;4881947;29;19912;-72
2022/06/11 09:43:51;;;;;;;;;;;27.60;35.00;;;;;;4882939;29;19919;-74
2022/06/11 09:46:22;;;;;;;;;;;27.50;35.90;;;;;;4882610;29;19955;-72
2022/06/11 09:49:13;;;;;;;;;;;27.40;36.40;;;;;;4882715;29;20292;-70
2022/06/11 09:51:48;;;;;;;;;;;27.40;35.60;;;;;;4860635;29;19963;-69
2022/06/11 09:54:23;;;;;;;;;;;27.30;36.10;;;;;;4882269;29;20521;-70
2022/06/11 09:57:07;;;;;;;;;;;27.30;36.30;;;;;;4882727;29;20002;-69
2022/06/11 09:59:44;;;;;;;;;;;27.30;36.80;;;;;;4882392;29;19911;-69
2022/06/11 10:04:55;;;;;;;;;;;27.10;35.60;;;;;;4882239;29;19916;-69
2022/06/11 10:07:23;;;;;;;;;;;27.20;37.00;;;;;;4881781;29;19912;-69
2022/06/11 10:09:57;;;;;;;;;;;27.10;35.70;;;;;;4881169;29;19922;-70
2022/06/11 10:12:28;;;;;;;;;;;27.00;36.10;;;;;;4881206;29;19924;-71
2022/06/11 10:14:56;;;;;;;;;;;27.10;36.90;;;;;;4881319;29;19920;-72
2022/06/11 10:17:40;;;;;;;;;;;27.20;36.30;;;;;;4876616;29;19912;-68
2022/06/11 10:20:11;;;;;;;;;;;27.30;35.70;;;;;;4881155;29;19912;-70
2022/06/11 10:22:42;;;;;;;;;;;27.30;36.00;;;;;;4881854;29;19920;-69
2022/06/11 10:25:17;;;;;;;;;;;27.40;36.80;;;;;;4881104;29;19923;-70
2022/06/11 10:27:46;;;;;;;;;;;27.50;36.80;;;;;;4881294;29;19918;-65
2022/06/11 10:30:18;;;;;;;;;;;27.50;35.30;;;;;;4881714;29;19926;-66
2022/06/11 10:32:46;;;;;;;;;;;27.50;36.10;;;;;;4880566;29;20391;-66
2022/06/11 10:35:14;;;;;;;;;;;27.60;35.70;;;;;;4881768;29;19915;-72
2022/06/11 10:37:41;;;;;;;;;;;27.60;36.70;;;;;;4881867;29;19912;-72
2022/06/11 10:40:11;;;;;;;;;;;27.40;36.20;;;;;;4881612;29;20014;-69
2022/06/11 10:42:36;;;;;;;;;;;27.40;36.60;;;;;;4881771;29;19911;-71
2022/06/11 10:45:02;;;;;;;;;;;27.50;37.60;;;;;;4881917;29;19912;-65
2022/06/11 10:47:32;;;;;;;;;;;27.60;37.50;;;;;;4881603;29;20360;-69
2022/06/11 10:50:09;;;;;;;;;;;27.70;37.00;;;;;;4881539;29;19912;-69
2022/06/11 10:52:41;;;;;;;;;;;27.70;36.50;;;;;;4881418;29;19918;-68
2022/06/11 10:55:10;;;;;;;;;;;27.70;36.90;;;;;;4881384;29;19918;-63
2022/06/11 10:57:36;;;;;;;;;;;27.70;36.10;;;;;;4879442;29;19947;-64
2022/06/11 11:00:05;;;;;;;;;;;27.70;36.20;;;;;;4880611;29;20266;-66
2022/06/11 11:02:33;;;;;;;;;;;27.60;36.10;;;;;;4880857;29;19968;-66
2022/06/11 11:05:04;;;;;;;;;;;27.70;37.10;;;;;;4880665;29;20280;-65
2022/06/11 11:07:41;;;;;;;;;;;27.70;37.10;;;;;;4880565;29;20289;-66
2022/06/11 11:10:17;;;;;;;;;;;27.80;37.50;;;;;;4881086;29;19947;-64
2022/06/11 11:12:43;;;;;;;;;;;27.90;37.10;;;;;;4880433;29;19924;-71
2022/06/11 11:15:09;;;;;;;;;;;27.80;36.60;;;;;;4880607;29;19967;-64
2022/06/11 11:17:34;;;;;;;;;;;27.70;36.50;;;;;;4880387;29;19968;-61
2022/06/11 11:20:30;;;;;;;;;;;27.70;36.20;;;;;;4880478;29;19934;-64
2022/06/11 11:22:57;;;;;;;;;;;27.70;36.40;;;;;;4880336;29;19959;-63
2022/06/11 11:25:28;;;;;;;;;;;27.80;36.40;;;;;;4880360;29;19912;-69
2022/06/11 11:27:53;;;;;;;;;;;27.90;36.80;;;;;;4880479;29;19960;-62
2022/06/11 11:30:27;;;;;;;;;;;28.00;36.60;;;;;;4880201;29;20010;-64
2022/06/11 11:32:53;;;;;;;;;;;28.10;36.70;;;;;;4894020;29;19919;-63
2022/06/11 11:35:19;;;;;;;;;;;28.00;36.00;;;;;;4880264;29;19920;-65
2022/06/11 11:37:46;;;;;;;;;;;28.00;36.50;;;;;;4880242;29;20335;-68
2022/06/11 11:40:23;;;;;;;;;;;28.10;36.70;;;;;;4880037;29;20364;-62
2022/06/11 11:42:51;;;;;;;;;;;28.10;36.80;;;;;;4880158;29;19927;-62
2022/06/11 11:45:19;;;;;;;;;;;28.20;36.00;;;;;;4879993;29;20257;-64
2022/06/11 11:47:44;;;;;;;;;;;28.10;39.10;;;;;;4880159;29;19923;-62
2022/06/11 11:50:13;;;;;;;;;;;28.00;39.10;;;;;;4879657;29;19920;-60
2022/06/11 11:53:01;;;;;;;;;;;27.90;41.30;;;;;;4880073;29;20377;-60
2022/06/11 11:55:28;;;;;;;;;;;27.90;41.50;;;;;;4879811;29;19916;-62
2022/06/11 11:58:14;;;;;;;;;;;27.80;42.70;;;;;;4879960;29;19964;-64
2022/06/11 12:00:49;;;;;;;;;;;27.90;42.90;;;;;;4879824;29;20364;-62
2022/06/11 12:03:20;;;;;;;;;;;27.80;42.90;;;;;;4894105;29;19919;-61
2022/06/11 12:05:53;;;;;;;;;;;27.70;43.60;;;;;;4879497;29;19919;-65
2022/06/11 12:08:21;;;;;;;;;;;27.60;42.90;;;;;;4879572;29;19916;-65
2022/06/11 12:10:49;;;;;;;;;;;27.60;43.20;;;;;;4879510;29;20030;-62
2022/06/11 12:13:22;;;;;;;;;;;27.70;44.20;;;;;;4879810;29;19953;-68
2022/06/11 12:15:53;;;;;;;;;;;27.70;43.80;;;;;;4879505;29;19912;-67
2022/06/11 12:18:21;;;;;;;;;;;27.70;43.60;;;;;;4879813;29;20057;-66
2022/06/11 12:20:50;;;;;;;;;;;27.70;42.60;;;;;;4879451;29;19919;-66
2022/06/11 12:23:29;;;;;;;;;;;27.50;43.40;;;;;;4879615;29;19934;-67
2022/06/11 12:25:55;;;;;;;;;;;27.50;44.20;;;;;;4879370;29;19923;-66
2022/06/11 12:28:24;;;;;;;;;;;27.50;44.40;;;;;;4879512;29;20421;-65
2022/06/11 12:30:49;;;;;;;;;;;27.40;45.10;;;;;;4879506;29;19936;-67
2022/06/11 12:33:16;;;;;;;;;;;27.50;45.60;;;;;;4879987;29;19912;-65
2022/06/11 12:35:54;;;;;;;;;;;27.40;45.00;;;;;;4879668;29;19911;-69
2022/06/11 12:38:32;;;;;;;;;;;27.50;44.90;;;;;;4879519;29;19912;-68
2022/06/11 12:41:00;;;;;;;;;;;27.40;44.40;;;;;;4879261;29;20003;-67
2022/06/11 12:43:29;;;;;;;;;;;27.30;44.40;;;;;;4881238;29;19916;-67
2022/06/11 12:46:07;;;;;;;;;;;27.30;44.00;;;;;;4883255;29;19918;-64
2022/06/11 12:48:38;;;;;;;;;;;27.30;44.20;;;;;;4883686;29;19974;-70
2022/06/11 12:51:15;;;;;;;;;;;27.30;44.50;;;;;;4883064;29;20015;-67
2022/06/11 12:53:58;;;;;;;;;;;27.40;45.20;;;;;;4883812;29;20268;-69
2022/06/11 12:56:42;;;;;;;;;;;27.50;44.80;;;;;;4883731;29;20002;-70
2022/06/11 12:59:26;;;;;;;;;;;27.50;45.30;;;;;;4883554;29;19919;-70
2022/06/11 13:01:52;;;;;;;;;;;27.50;45.80;;;;;;4883290;29;19916;-67
2022/06/11 13:04:17;;;;;;;;;;;27.50;45.80;;;;;;4883514;29;19912;-67
2022/06/11 13:06:58;;;;;;;;;;;27.50;45.10;;;;;;4896700;29;20011;-71
2022/06/11 13:09:42;;;;;;;;;;;27.40;46.10;;;;;;4879843;29;20480;-60
2022/06/11 13:12:13;;;;;;;;;;;27.20;44.30;;;;;;4882180;29;20011;-61
2022/06/11 13:14:58;;;;;;;;;;;27.20;45.60;;;;;;4879904;29;19981;-62
2022/06/11 13:17:23;;;;;;;;;;;27.00;45.50;;;;;;4882874;29;19912;-61
2022/06/11 13:20:07;;;;;;;;;;;26.90;46.30;;;;;;4878649;29;19999;-65
2022/06/11 13:22:33;;;;;;;;;;;26.90;47.80;;;;;;4882037;29;19938;-63
2022/06/11 13:25:11;;;;;;;;;;;26.90;48.10;;;;;;4881444;29;19916;-63
2022/06/11 13:27:37;;;;;;;;;;;26.80;46.90;;;;;;4882522;29;19919;-64
2022/06/11 13:30:12;;;;;;;;;;;26.80;47.50;;;;;;4882412;29;20018;-62
2022/06/11 13:32:38;;;;;;;;;;;26.80;46.80;;;;;;4882439;29;19938;-63
2022/06/11 13:35:18;;;;;;;;;;;26.80;48.30;;;;;;4882747;29;20388;-63
2022/06/11 13:37:51;;;;;;;;;;;26.80;48.10;;;;;;4870203;29;19919;-64
2022/06/11 13:40:16;;;;;;;;;;;26.80;48.50;;;;;;4881849;29;19912;-63
2022/06/11 13:42:57;;;;;;;;;;;26.90;48.60;;;;;;4881788;29;19998;-63
2022/06/11 13:45:46;;;;;;;;;;;26.90;48.90;;;;;;4882327;29;19912;-65
2022/06/11 13:48:17;;;;;;;;;;;27.00;48.00;;;;;;4844546;29;20436;-63
2022/06/11 13:51:01;;;;;;;;;;;27.10;47.50;;;;;;4878320;29;19927;-64
2022/06/11 13:56:17;;;;;;;;;;;27.00;47.10;;;;;;4863482;29;19922;-65
2022/06/11 13:58:43;;;;;;;;;;;27.00;48.00;;;;;;4864130;29;19912;-63
2022/06/11 14:01:11;;;;;;;;;;;27.00;47.90;;;;;;4864126;29;19916;-64
2022/06/11 14:03:37;;;;;;;;;;;27.00;47.10;;;;;;4880982;29;19912;-63
2022/06/11 14:06:05;;;;;;;;;;;27.00;48.00;;;;;;4882342;29;19934;-69
2022/06/11 14:08:36;;;;;;;;;;;27.00;47.70;;;;;;4882230;29;19940;-67
2022/06/11 14:11:02;;;;;;;;;;;26.90;47.50;;;;;;4878126;29;20347;-65
2022/06/11 14:13:47;;;;;;;;;;;27.00;47.60;;;;;;4882219;29;19947;-63
2022/06/11 14:16:38;;;;;;;;;;;26.90;47.00;;;;;;4882457;29;19919;-61
2022/06/11 14:19:13;;;;;;;;;;;26.80;45.80;;;;;;4879158;29;20288;-65
2022/06/11 14:21:38;;;;;;;;;;;26.80;45.80;;;;;;4881969;29;20284;-62
2022/06/11 14:24:07;;;;;;;;;;;26.80;46.20;;;;;;4881861;29;19916;-63
2022/06/11 14:26:45;;;;;;;;;;;26.60;46.50;;;;;;4865495;29;19912;-64
2022/06/11 14:29:18;;;;;;;;;;;26.50;47.30;;;;;;4881964;29;19912;-64
2022/06/11 14:31:55;;;;;;;;;;;26.40;48.10;;;;;;4881815;29;19939;-66
2022/06/11 14:34:22;;;;;;;;;;;26.40;47.80;;;;;;4881725;29;19976;-65
2022/06/11 14:37:01;;;;;;;;;;;26.50;48.00;;;;;;4881721;29;20377;-65